Time;durP1;ratioP1;P1;durP2;ratioP2;P2;SDS_P1;SDS_P2;PMS_P1;PMS_P2;Temp;Humidity;BMP_temperature;BMP_pressure;BME280_temperature;BME280_humidity;BME280_pressure;Samples;Min_cycle;Max_cycle;Signal;HPM_P1;HPM_P2
2023/04/08 00:15:42;;;;;;;1.20;0.82;;;11.60;96.70;;;;;;5075979;28;20067;-74
2023/04/08 00:18:10;;;;;;;2.63;1.33;;;11.50;96.70;;;;;;5079593;28;20545;-74
2023/04/08 00:20:38;;;;;;;1.92;1.15;;;11.40;96.70;;;;;;5074632;28;20043;-74
2023/04/08 00:23:07;;;;;;;1.85;1.25;;;11.50;96.70;;;;;;5082311;28;20040;-74
2023/04/08 00:25:35;;;;;;;1.75;1.20;;;11.50;96.70;;;;;;5081454;28;20105;-74
2023/04/08 00:28:03;;;;;;;2.03;1.58;;;11.50;96.70;;;;;;5091608;28;20047;-73
2023/04/08 00:30:31;;;;;;;1.83;1.30;;;11.50;96.70;;;;;;5102325;28;20400;-73
2023/04/08 00:33:01;;;;;;;1.95;1.30;;;11.40;96.70;;;;;;5082678;28;20044;-73
2023/04/08 00:35:29;;;;;;;2.67;1.30;;;11.40;96.70;;;;;;5081577;28;20048;-74
2023/04/08 00:50:31;;;;;;;1.50;1.10;;;11.30;96.70;;;;;;5090456;28;20254;-74
2023/04/08 00:53:00;;;;;;;1.75;1.10;;;11.40;96.70;;;;;;5080282;28;20465;-74
2023/04/08 00:55:28;;;;;;;1.92;0.80;;;11.40;96.70;;;;;;5081186;28;20037;-74
2023/04/08 00:57:57;;;;;;;1.77;1.00;;;11.40;96.70;;;;;;5089498;28;20127;-74
2023/04/08 01:00:27;;;;;;;2.30;1.00;;;11.40;96.70;;;;;;5076213;28;20047;-74
2023/04/08 01:03:12;;;;;;;2.13;1.17;;;11.40;96.70;;;;;;5051006;28;20048;-74
2023/04/08 01:06:11;;;;;;;1.38;0.90;;;11.40;96.70;;;;;;5083963;28;20036;-73
2023/04/08 01:08:56;;;;;;;;;;;11.40;96.70;;;;;;5079356;28;20051;-74
2023/04/08 01:11:52;;;;;;;1.58;1.10;;;11.40;96.70;;;;;;5074588;28;19931;-74
2023/04/08 01:14:42;;;;;;;1.25;0.90;;;11.40;96.70;;;;;;5085323;28;20861;-73
2023/04/08 01:17:14;;;;;;;2.47;0.93;;;11.40;96.70;;;;;;5079860;28;20097;-74
2023/04/08 01:19:45;;;;;;;1.00;0.73;;;11.40;96.70;;;;;;5096497;28;20657;-74
2023/04/08 01:23:06;;;;;;;0.95;0.80;;;11.40;96.70;;;;;;5041682;28;20064;-74
2023/04/08 01:25:36;;;;;;;1.83;0.98;;;11.30;96.70;;;;;;5031577;28;20061;-74
2023/04/08 01:28:11;;;;;;;1.35;0.75;;;11.30;96.70;;;;;;5011831;28;20125;-74
2023/04/08 01:30:41;;;;;;;1.45;0.80;;;11.40;96.70;;;;;;5022818;28;20053;-73
2023/04/08 02:06:49;;;;;;;1.42;0.57;;;11.10;96.70;;;;;;5044716;28;20712;-73
2023/04/08 02:09:18;;;;;;;1.10;0.70;;;10.90;96.70;;;;;;5074234;28;20044;-73
2023/04/08 02:11:46;;;;;;;2.05;0.65;;;10.90;96.70;;;;;;5085690;28;20040;-74
2023/04/08 02:14:15;;;;;;;0.60;0.60;;;10.90;96.70;;;;;;5086662;28;20069;-73
2023/04/08 02:46:15;;;;;;;2.17;0.60;;;10.80;96.70;;;;;;5075226;28;20059;-74
2023/04/08 02:48:44;;;;;;;2.58;0.75;;;10.90;96.70;;;;;;5080221;28;20325;-73
2023/04/08 02:51:12;;;;;;;0.80;0.68;;;10.90;96.70;;;;;;5093719;28;20087;-73
2023/04/08 02:53:40;;;;;;;1.00;0.70;;;10.90;96.70;;;;;;5084206;28;20059;-73
2023/04/08 03:17:34;;;;;;;1.17;1.00;;;11.00;96.70;;;;;;5059042;28;20126;-74
2023/04/08 03:20:03;;;;;;;1.48;0.60;;;11.00;96.70;;;;;;5057526;28;20705;-73
2023/04/08 03:22:31;;;;;;;1.48;0.60;;;11.00;96.70;;;;;;5062691;28;20933;-73
2023/04/08 03:24:59;;;;;;;1.38;0.70;;;10.90;96.70;;;;;;5064256;28;20051;-74
2023/04/08 03:27:28;;;;;;;0.60;0.50;;;11.00;96.70;;;;;;5063451;28;20037;-73
2023/04/08 03:29:56;;;;;;;0.65;0.55;;;11.00;96.70;;;;;;5056126;28;20069;-73
2023/04/08 03:32:25;;;;;;;1.00;0.55;;;11.00;96.70;;;;;;5062084;28;20076;-74
2023/04/08 03:34:54;;;;;;;1.35;0.50;;;10.90;96.70;;;;;;5051523;28;20041;-74
2023/04/08 03:37:22;;;;;;;0.85;0.50;;;10.90;96.70;;;;;;5063358;28;20044;-73
2023/04/08 03:39:50;;;;;;;0.63;0.38;;;10.80;96.70;;;;;;5062134;28;20048;-73
2023/04/08 03:42:18;;;;;;;1.10;0.60;;;10.80;96.70;;;;;;5061968;28;20044;-73
2023/04/08 04:01:40;;;;;;;1.17;0.70;;;11.00;96.70;;;;;;5054188;28;20130;-72
2023/04/08 04:04:09;;;;;;;0.77;0.60;;;11.00;96.70;;;;;;5051802;28;20040;-74
2023/04/08 04:06:38;;;;;;;0.95;0.60;;;11.10;96.70;;;;;;5050275;28;20066;-73
2023/04/08 05:04:48;;;;;;;1.10;0.30;;;10.90;96.70;;;;;;5073279;28;20921;-73
2023/04/08 05:07:16;;;;;;;0.20;0.20;;;10.90;96.70;;;;;;5073057;28;20121;-73
2023/04/08 05:09:45;;;;;;;0.82;0.17;;;10.80;96.70;;;;;;5075167;28;20127;-74
2023/04/08 05:12:13;;;;;;;0.43;0.20;;;10.70;96.70;;;;;;5096707;28;20592;-73
2023/04/08 05:14:41;;;;;;;0.73;0.20;;;10.70;96.70;;;;;;5088556;28;20040;-73
2023/04/08 05:17:09;;;;;;;0.30;0.20;;;10.60;96.70;;;;;;5090840;28;20618;-74
2023/04/08 05:19:37;;;;;;;0.65;0.20;;;10.60;96.70;;;;;;5099141;28;20035;-73
2023/04/08 05:22:08;;;;;;;1.38;0.20;;;10.60;96.70;;;;;;5068140;28;20076;-74
2023/04/08 05:24:36;;;;;;;0.30;0.20;;;10.60;96.70;;;;;;5078635;28;20055;-73
2023/04/08 05:27:04;;;;;;;0.30;0.20;;;10.50;96.70;;;;;;5081670;28;20079;-73
2023/04/08 05:29:32;;;;;;;0.40;0.13;;;10.40;96.70;;;;;;5072978;28;20129;-73
2023/04/08 05:32:00;;;;;;;1.17;0.25;;;10.50;96.70;;;;;;5079993;27;20128;-73
2023/04/08 05:34:30;;;;;;;0.75;0.43;;;10.60;96.70;;;;;;5078339;28;20582;-73
2023/04/08 05:36:58;;;;;;;0.50;0.30;;;10.50;96.70;;;;;;5079040;28;20048;-73
2023/04/08 05:39:28;;;;;;;1.40;0.40;;;10.50;96.70;;;;;;5076167;28;20676;-73
2023/04/08 05:41:56;;;;;;;0.43;0.35;;;10.70;96.70;;;;;;5089332;28;20047;-73
2023/04/08 05:44:24;;;;;;;0.85;0.60;;;10.70;96.70;;;;;;5088394;28;20397;-73
2023/04/08 05:46:52;;;;;;;0.85;0.50;;;10.70;96.70;;;;;;5076410;28;20130;-73
2023/04/08 05:49:20;;;;;;;0.80;0.65;;;10.60;96.70;;;;;;5062328;28;20444;-74
2023/04/08 05:51:49;;;;;;;0.70;0.40;;;10.60;96.70;;;;;;5076657;28;20040;-74
2023/04/08 05:54:17;;;;;;;0.50;0.40;;;10.50;96.70;;;;;;5070275;28;20131;-74
2023/04/08 05:56:47;;;;;;;0.50;0.40;;;10.30;96.70;;;;;;5074310;28;20079;-74
2023/04/08 05:59:15;;;;;;;0.50;0.35;;;10.50;96.70;;;;;;5081276;28;20051;-75
2023/04/08 06:01:43;;;;;;;0.45;0.40;;;10.60;96.70;;;;;;5061692;28;20075;-74
2023/04/08 06:04:12;;;;;;;0.93;0.22;;;10.70;96.70;;;;;;5074322;28;20045;-74
2023/04/08 06:06:41;;;;;;;0.60;0.30;;;10.60;96.70;;;;;;5093525;28;20496;-75
2023/04/08 06:09:09;;;;;;;0.63;0.40;;;10.60;96.70;;;;;;5089136;28;20043;-74
2023/04/08 06:11:37;;;;;;;0.88;0.45;;;10.70;96.70;;;;;;5073563;28;20048;-74
2023/04/08 06:14:06;;;;;;;0.65;0.30;;;10.60;96.70;;;;;;5074391;28;20425;-75
2023/04/08 06:16:34;;;;;;;0.50;0.20;;;10.60;96.70;;;;;;5092150;28;20124;-74
2023/04/08 06:19:02;;;;;;;0.73;0.40;;;10.60;96.70;;;;;;5065613;28;20049;-73
2023/04/08 06:21:30;;;;;;;1.00;0.40;;;10.90;96.70;;;;;;5063793;28;20386;-73
2023/04/08 06:23:58;;;;;;;0.70;0.30;;;11.00;96.70;;;;;;5073444;28;20040;-74
2023/04/08 06:26:27;;;;;;;0.77;0.45;;;11.00;96.70;;;;;;5080029;28;20047;-73
2023/04/08 06:28:55;;;;;;;0.90;0.45;;;11.00;96.70;;;;;;5072697;28;20064;-73
2023/04/08 06:31:24;;;;;;;0.80;0.30;;;11.00;96.70;;;;;;5074758;28;20048;-74
2023/04/08 06:33:52;;;;;;;2.05;0.35;;;11.00;96.70;;;;;;5075318;28;20043;-74
2023/04/08 06:36:20;;;;;;;0.82;0.40;;;11.00;96.70;;;;;;5076231;28;20544;-73
2023/04/08 06:38:49;;;;;;;0.60;0.38;;;11.10;96.70;;;;;;5073436;28;20160;-73
2023/04/08 06:41:17;;;;;;;0.57;0.32;;;11.10;96.70;;;;;;5079384;28;20046;-73
2023/04/08 06:43:45;;;;;;;1.20;0.70;;;11.30;96.70;;;;;;5071625;28;20047;-73
2023/04/08 06:46:13;;;;;;;0.65;0.32;;;11.40;96.70;;;;;;5075740;28;20037;-74
2023/04/08 06:48:43;;;;;;;0.50;0.30;;;11.60;96.70;;;;;;5073281;28;20113;-73
2023/04/08 06:51:11;;;;;;;0.60;0.47;;;11.40;96.70;;;;;;5074017;28;20052;-72
2023/04/08 06:53:39;;;;;;;0.25;0.20;;;11.40;96.70;;;;;;5079411;28;20044;-73
2023/04/08 06:56:07;;;;;;;0.30;0.20;;;11.60;96.70;;;;;;5088473;28;20048;-74
2023/04/08 06:58:35;;;;;;;1.45;0.98;;;11.60;96.70;;;;;;5076358;28;20043;-75
2023/04/08 07:01:03;;;;;;;1.52;1.00;;;11.70;96.70;;;;;;5094350;28;20047;-74
2023/04/08 07:03:31;;;;;;;2.17;1.55;;;11.70;96.70;;;;;;5076547;28;20048;-74
2023/04/08 07:06:03;;;;;;;0.80;0.50;;;11.80;96.70;;;;;;5080954;28;20043;-74
2023/04/08 07:08:31;;;;;;;0.85;0.30;;;11.60;96.70;;;;;;5079627;28;20048;-72
2023/04/08 07:10:59;;;;;;;0.90;0.43;;;11.70;96.70;;;;;;5079667;28;20567;-74
2023/04/08 07:13:28;;;;;;;0.60;0.20;;;11.70;96.70;;;;;;5081753;28;20561;-74
2023/04/08 07:15:56;;;;;;;0.40;0.20;;;11.90;96.70;;;;;;5074493;28;20055;-74
2023/04/08 07:18:25;;;;;;;0.60;0.35;;;12.00;96.70;;;;;;5077758;28;20063;-73
2023/04/08 07:20:53;;;;;;;0.28;0.20;;;12.00;96.70;;;;;;5080707;28;20039;-73
2023/04/08 07:23:23;;;;;;;1.38;0.32;;;12.10;96.70;;;;;;5068531;28;20066;-74
2023/04/08 07:25:51;;;;;;;0.43;0.30;;;12.10;96.70;;;;;;5078725;28;20048;-74
2023/04/08 07:28:19;;;;;;;0.40;0.20;;;12.10;96.70;;;;;;5076208;28;20036;-74
2023/04/08 07:30:47;;;;;;;0.30;0.20;;;12.10;96.70;;;;;;5078347;28;20097;-74
2023/04/08 07:33:18;;;;;;;0.60;0.28;;;12.20;96.70;;;;;;5078986;28;20040;-74
2023/04/08 07:35:46;;;;;;;0.85;0.30;;;12.20;96.70;;;;;;5076765;28;20109;-75
2023/04/08 07:38:15;;;;;;;0.50;0.30;;;12.20;96.70;;;;;;5071828;28;20080;-75
2023/04/08 07:40:45;;;;;;;1.20;0.50;;;12.30;96.70;;;;;;5073605;28;20040;-75
2023/04/08 07:43:13;;;;;;;0.52;0.20;;;12.40;96.70;;;;;;5079096;28;20040;-75
2023/04/08 07:45:41;;;;;;;1.02;0.40;;;12.30;96.70;;;;;;5090667;28;20047;-75
2023/04/08 07:48:10;;;;;;;0.90;0.30;;;12.40;96.70;;;;;;5090394;28;20515;-75
2023/04/08 07:50:38;;;;;;;0.57;0.40;;;12.40;96.70;;;;;;5095334;28;20101;-73
2023/04/08 07:53:26;;;;;;;1.02;0.60;;;12.40;96.70;;;;;;5092339;28;20047;-74
2023/04/08 07:55:56;;;;;;;7.30;5.38;;;12.40;96.70;;;;;;5086149;28;20397;-74
2023/04/08 07:58:25;;;;;;;4.53;1.98;;;12.50;96.70;;;;;;5069195;28;20037;-74
2023/04/08 08:00:53;;;;;;;5.05;4.38;;;12.50;96.70;;;;;;5069143;28;20058;-74
2023/04/08 08:03:21;;;;;;;4.63;3.88;;;12.60;96.70;;;;;;5087364;28;20721;-74
2023/04/08 08:05:52;;;;;;;4.40;2.55;;;12.70;96.70;;;;;;5083712;28;20044;-74
2023/04/08 08:08:20;;;;;;;3.20;2.80;;;12.70;96.70;;;;;;5090842;28;20067;-74
2023/04/08 08:11:04;;;;;;;2.75;1.60;;;12.70;96.70;;;;;;5090152;28;20048;-73
2023/04/08 08:13:33;;;;;;;3.00;2.35;;;12.80;96.70;;;;;;5087662;28;20044;-74
2023/04/08 08:16:01;;;;;;;4.82;2.15;;;12.80;96.70;;;;;;5101421;28;20040;-73
2023/04/08 08:18:29;;;;;;;1.77;1.58;;;12.90;96.70;;;;;;5074144;28;20493;-74
2023/04/08 08:21:00;;;;;;;3.70;1.80;;;12.90;96.70;;;;;;5088763;28;20132;-73
2023/04/08 08:23:28;;;;;;;4.72;1.90;;;12.90;96.70;;;;;;5090372;28;20035;-73
2023/04/08 08:26:05;;;;;;;1.95;1.52;;;13.00;96.70;;;;;;5076430;28;20040;-74
2023/04/08 08:28:33;;;;;;;2.85;1.55;;;13.00;96.70;;;;;;5081079;28;20116;-74
2023/04/08 08:31:06;;;;;;;2.65;2.00;;;13.10;96.70;;;;;;5081951;28;20048;-75
2023/04/08 08:33:40;;;;;;;2.00;1.48;;;13.10;96.70;;;;;;5079849;28;20049;-74
2023/04/08 08:36:08;;;;;;;1.92;1.67;;;13.20;96.70;;;;;;5081552;28;20042;-75
2023/04/08 08:38:36;;;;;;;2.38;1.70;;;13.20;96.70;;;;;;5081142;28;20106;-73
2023/04/08 08:41:06;;;;;;;2.92;1.80;;;13.30;96.70;;;;;;5078779;28;20048;-73
2023/04/08 08:43:34;;;;;;;3.17;2.10;;;13.40;96.70;;;;;;5083295;28;20044;-73
2023/04/08 08:46:02;;;;;;;3.35;1.90;;;13.50;96.70;;;;;;5079862;28;20040;-74
2023/04/08 08:48:31;;;;;;;2.25;1.77;;;13.50;96.70;;;;;;5066222;28;20176;-73
2023/04/08 08:51:00;;;;;;;5.10;2.10;;;13.50;96.70;;;;;;5081276;28;20040;-74
2023/04/08 08:53:30;;;;;;;4.10;1.85;;;13.60;96.70;;;;;;5067444;28;20043;-73
2023/04/08 08:56:02;;;;;;;3.50;2.13;;;13.70;96.70;;;;;;5074665;28;20583;-74
2023/04/08 08:58:35;;;;;;;2.42;2.00;;;13.80;96.70;;;;;;5080512;28;20044;-73
2023/04/08 09:01:23;;;;;;;2.53;1.98;;;13.90;96.70;;;;;;5083074;28;20051;-75
2023/04/08 09:04:10;;;;;;;4.38;2.65;;;13.90;96.70;;;;;;5091374;28;20051;-73
2023/04/08 09:06:39;;;;;;;2.72;2.10;;;14.00;96.70;;;;;;5075501;28;20055;-73
2023/04/08 09:09:11;;;;;;;6.38;2.55;;;14.00;96.70;;;;;;5080999;28;20047;-74
2023/04/08 09:11:40;;;;;;;3.65;2.55;;;14.00;96.70;;;;;;5069236;28;20150;-75
2023/04/08 09:14:21;;;;;;;3.10;2.67;;;14.10;96.70;;;;;;5082541;28;20433;-73
2023/04/08 09:16:51;;;;;;;3.92;2.97;;;14.10;96.70;;;;;;5092017;28;20098;-73
2023/04/08 09:19:20;;;;;;;4.07;2.85;;;14.30;96.70;;;;;;5081601;28;20146;-74
2023/04/08 09:22:06;;;;;;;3.92;2.60;;;14.40;96.70;;;;;;5081037;28;20044;-73
2023/04/08 09:24:37;;;;;;;4.57;3.70;;;14.40;96.70;;;;;;5079019;28;20044;-73
2023/04/08 09:27:08;;;;;;;5.22;3.05;;;14.50;96.70;;;;;;5076685;28;20198;-74
2023/04/08 09:29:39;;;;;;;3.83;2.80;;;14.60;96.70;;;;;;5077025;28;20320;-74
2023/04/08 09:32:08;;;;;;;5.68;3.30;;;14.70;96.70;;;;;;5076043;28;20036;-73
2023/04/08 09:34:37;;;;;;;4.25;2.83;;;14.80;96.70;;;;;;5062917;28;20127;-72
2023/04/08 09:37:12;;;;;;;4.53;3.27;;;14.80;96.70;;;;;;5074657;28;20572;-74
2023/04/08 09:39:41;;;;;;;3.88;3.50;;;14.90;96.70;;;;;;5082876;28;20097;-74
2023/04/08 09:42:12;;;;;;;3.25;2.80;;;15.00;96.70;;;;;;5081146;28;20051;-73
2023/04/08 09:44:46;;;;;;;6.82;3.40;;;15.10;96.70;;;;;;5089821;28;20040;-73
2023/04/08 09:47:21;;;;;;;4.93;3.05;;;15.20;96.70;;;;;;5089657;28;20066;-73
2023/04/08 09:49:54;;;;;;;5.40;3.20;;;15.10;96.70;;;;;;5081525;28;20044;-74
2023/04/08 09:52:29;;;;;;;2.90;2.60;;;15.10;96.70;;;;;;5082075;28;20068;-74
2023/04/08 09:55:03;;;;;;;3.85;2.95;;;15.30;96.70;;;;;;5081426;28;20831;-74
2023/04/08 09:57:41;;;;;;;4.68;3.17;;;15.40;96.70;;;;;;5072136;28;20052;-74
2023/04/08 10:00:14;;;;;;;5.18;3.00;;;15.40;96.70;;;;;;5080425;28;20040;-74
2023/04/08 10:02:57;;;;;;;4.05;3.38;;;15.50;96.70;;;;;;5082066;28;20086;-74
2023/04/08 10:05:27;;;;;;;3.63;3.25;;;15.70;96.70;;;;;;5080997;28;20758;-73
2023/04/08 10:07:56;;;;;;;3.40;3.03;;;15.80;96.70;;;;;;5081497;28;20056;-74
2023/04/08 10:10:26;;;;;;;3.60;3.10;;;16.10;96.70;;;;;;5082253;28;20114;-74
2023/04/08 10:12:54;;;;;;;7.07;3.00;;;16.20;96.70;;;;;;5080573;28;20040;-74
2023/04/08 10:15:29;;;;;;;3.22;2.90;;;16.20;96.70;;;;;;5075171;28;20069;-73
2023/04/08 10:18:32;;;;;;;4.88;3.10;;;16.30;96.70;;;;;;5077918;28;20493;-74
2023/04/08 10:21:02;;;;;;;3.42;2.33;;;16.50;96.70;;;;;;5077263;28;20044;-74
2023/04/08 10:23:58;;;;;;;4.07;2.53;;;16.70;96.70;;;;;;5073667;28;20043;-73
2023/04/08 10:26:35;;;;;;;2.75;1.73;;;17.00;96.70;;;;;;5043081;28;20713;-73
2023/04/08 10:29:37;;;;;;;2.30;1.67;;;17.20;96.70;;;;;;5073991;28;20066;-74
2023/04/08 10:32:07;;;;;;;2.15;1.60;;;17.50;96.70;;;;;;5026088;28;20648;-73
2023/04/08 10:34:52;;;;;;;2.67;1.80;;;17.70;96.70;;;;;;5008508;28;20045;-74
2023/04/08 10:37:21;;;;;;;3.90;1.65;;;17.80;96.70;;;;;;5028921;28;20065;-73
2023/04/08 10:39:51;;;;;;;3.20;1.75;;;17.60;96.70;;;;;;5035624;28;20592;-75
2023/04/08 10:42:27;;;;;;;3.65;1.73;;;17.80;96.70;;;;;;5013409;28;20222;-74
2023/04/08 10:45:01;;;;;;;2.50;1.55;;;18.10;96.70;;;;;;5020430;28;20664;-74
2023/04/08 10:47:31;;;;;;;4.28;1.58;;;18.00;96.70;;;;;;5042300;28;20038;-74
2023/04/08 10:50:01;;;;;;;2.70;1.20;;;17.90;96.70;;;;;;5015301;28;20065;-73
2023/04/08 10:52:30;;;;;;;2.35;1.58;;;18.20;96.70;;;;;;5034568;28;20056;-74
2023/04/08 10:54:59;;;;;;;1.90;1.17;;;18.40;96.70;;;;;;5051485;28;20047;-74
2023/04/08 10:57:27;;;;;;;3.05;1.23;;;18.60;96.70;;;;;;5050518;28;20154;-74
2023/04/08 10:59:56;;;;;;;1.95;1.25;;;18.50;96.70;;;;;;5042369;28;20048;-74
2023/04/08 11:02:33;;;;;;;5.28;1.38;;;18.50;96.70;;;;;;5037002;28;20044;-74
2023/04/08 11:05:02;;;;;;;2.17;1.17;;;18.60;96.70;;;;;;5083624;28;20055;-75
2023/04/08 11:07:32;;;;;;;6.45;2.83;;;18.60;96.70;;;;;;5080517;28;20037;-75
2023/04/08 11:10:02;;;;;;;4.45;2.45;;;18.80;96.70;;;;;;5083282;28;20097;-74
2023/04/08 11:12:32;;;;;;;2.97;1.70;;;18.70;96.70;;;;;;5082846;28;20063;-76
2023/04/08 11:15:02;;;;;;;1.63;1.27;;;19.00;96.70;;;;;;5062517;28;20047;-75
2023/04/08 11:17:33;;;;;;;1.80;1.50;;;19.10;96.70;;;;;;5078721;28;20112;-76
2023/04/08 11:20:05;;;;;;;2.38;1.55;;;19.20;96.70;;;;;;5076758;28;20049;-75
2023/04/08 11:22:35;;;;;;;1.95;1.40;;;19.10;96.70;;;;;;5080037;28;20036;-75
2023/04/08 11:25:07;;;;;;;4.60;2.20;;;19.30;96.70;;;;;;5061005;28;20886;-76
2023/04/08 11:27:36;;;;;;;3.65;2.20;;;19.40;96.70;;;;;;5076416;28;20121;-76
2023/04/08 11:30:07;;;;;;;2.15;1.45;;;19.40;96.70;;;;;;5076958;28;20036;-75
2023/04/08 11:32:38;;;;;;;2.30;1.00;;;19.50;96.70;;;;;;5079801;28;20070;-75
2023/04/08 11:35:07;;;;;;;1.45;1.00;;;19.70;96.70;;;;;;5072907;28;20507;-75
2023/04/08 11:37:40;;;;;;;2.78;1.13;;;19.60;96.70;;;;;;5076234;28;20051;-76
2023/04/08 11:40:10;;;;;;;3.42;1.38;;;19.70;96.70;;;;;;5075891;28;20046;-75
2023/04/08 11:42:39;;;;;;;3.15;1.15;;;19.70;96.70;;;;;;5088215;28;20075;-75
2023/04/08 11:45:12;;;;;;;2.75;1.15;;;19.80;96.70;;;;;;5082896;28;20624;-75
2023/04/08 11:47:43;;;;;;;1.38;1.08;;;20.00;96.70;;;;;;5084248;28;20048;-75
2023/04/08 11:50:23;;;;;;;2.85;1.00;;;20.10;96.70;;;;;;5090350;28;20039;-76
2023/04/08 11:52:54;;;;;;;3.13;1.20;;;20.20;96.70;;;;;;5101424;28;20044;-75
2023/04/08 11:55:25;;;;;;;2.67;1.42;;;20.20;96.70;;;;;;5078725;28;20036;-76
2023/04/08 11:57:55;;;;;;;1.70;1.15;;;20.30;96.70;;;;;;5076962;28;20630;-76
2023/04/08 12:00:23;;;;;;;9.07;2.08;;;20.30;96.70;;;;;;5061461;28;20513;-74
2023/04/08 12:02:54;;;;;;;2.22;1.02;;;20.50;96.70;;;;;;5081609;28;20167;-75
2023/04/08 12:05:24;;;;;;;3.67;1.45;;;20.70;96.70;;;;;;5079197;28;20043;-75
2023/04/08 12:07:54;;;;;;;2.10;1.20;;;20.60;96.70;;;;;;5101174;28;20040;-76
2023/04/08 12:10:24;;;;;;;2.25;1.40;;;20.70;96.70;;;;;;5090079;28;20090;-75
2023/04/08 12:12:53;;;;;;;3.75;1.33;;;20.70;96.70;;;;;;5083358;28;20040;-75
2023/04/08 12:15:21;;;;;;;2.55;1.00;;;20.80;96.70;;;;;;5093655;28;20039;-75
2023/04/08 12:17:50;;;;;;;2.65;1.33;;;20.60;96.70;;;;;;5092523;28;20372;-75
2023/04/08 12:20:20;;;;;;;3.92;1.25;;;20.70;96.70;;;;;;5098368;28;20453;-75
2023/04/08 12:22:50;;;;;;;2.75;1.25;;;20.90;96.70;;;;;;5065419;28;20063;-75
2023/04/08 12:25:19;;;;;;;1.75;1.20;;;21.00;96.70;;;;;;5094744;28;20071;-75
2023/04/08 12:27:48;;;;;;;3.67;1.30;;;21.20;96.70;;;;;;5080518;28;20094;-75
2023/04/08 12:30:17;;;;;;;1.63;1.10;;;21.20;96.70;;;;;;5093550;28;20048;-74
2023/04/08 12:32:46;;;;;;;1.63;1.00;;;21.20;96.70;;;;;;5098927;28;20386;-75
2023/04/08 12:35:15;;;;;;;7.72;3.85;;;21.20;96.70;;;;;;5073921;28;20047;-75
2023/04/08 12:37:46;;;;;;;2.95;1.10;;;21.30;96.70;;;;;;5080446;28;20443;-72
2023/04/08 12:40:15;;;;;;;1.27;1.02;;;21.40;96.70;;;;;;5060704;28;20131;-73
2023/04/08 12:42:43;;;;;;;2.95;0.95;;;21.30;96.70;;;;;;5077873;28;20041;-73
2023/04/08 12:45:12;;;;;;;2.83;1.10;;;21.20;96.70;;;;;;5080287;28;20068;-73
2023/04/08 12:47:40;;;;;;;1.77;1.10;;;21.30;96.70;;;;;;5077170;28;20043;-74
2023/04/08 12:50:10;;;;;;;2.95;1.20;;;21.50;96.70;;;;;;5081914;28;20109;-73
2023/04/08 12:52:39;;;;;;;2.30;1.25;;;21.60;96.70;;;;;;5075670;28;20078;-74
2023/04/08 12:55:10;;;;;;;1.60;1.02;;;21.80;96.70;;;;;;5066157;28;20127;-74
2023/04/08 12:57:39;;;;;;;1.67;0.90;;;21.60;96.70;;;;;;5078529;28;20459;-74
2023/04/08 13:00:10;;;;;;;1.65;0.90;;;21.40;96.70;;;;;;5081034;28;20040;-74
2023/04/08 13:02:39;;;;;;;2.03;1.42;;;21.40;96.70;;;;;;5073671;28;20044;-75
2023/04/08 13:05:08;;;;;;;2.53;1.10;;;21.30;96.70;;;;;;5076653;28;20071;-75
2023/04/08 13:07:36;;;;;;;2.70;0.98;;;21.50;96.70;;;;;;5076833;28;20466;-75
2023/04/08 13:10:05;;;;;;;1.63;1.05;;;21.70;96.70;;;;;;5089911;28;20043;-77
2023/04/08 13:12:37;;;;;;;1.80;0.85;;;21.60;96.70;;;;;;5081703;28;20047;-74
2023/04/08 13:15:07;;;;;;;2.10;1.00;;;21.20;96.70;;;;;;5099858;28;20491;-73
2023/04/08 13:17:35;;;;;;;2.28;1.00;;;21.20;96.70;;;;;;5075945;28;20048;-73
2023/04/08 13:20:05;;;;;;;3.50;0.80;;;21.50;96.70;;;;;;5094144;28;20044;-74
2023/04/08 13:22:33;;;;;;;2.80;1.13;;;21.30;96.70;;;;;;5087910;28;20493;-75
2023/04/08 13:25:01;;;;;;;3.20;0.90;;;21.40;96.70;;;;;;5098503;28;20048;-73
2023/04/08 13:27:29;;;;;;;1.77;1.10;;;21.30;96.70;;;;;;5077107;28;20043;-75
2023/04/08 13:29:59;;;;;;;2.50;1.17;;;21.10;96.70;;;;;;5091426;28;20043;-74
2023/04/08 13:32:27;;;;;;;1.90;0.85;;;21.10;96.70;;;;;;5101587;28;20047;-74
2023/04/08 13:34:56;;;;;;;1.80;0.98;;;21.30;96.70;;;;;;5092356;28;20036;-74
2023/04/08 13:37:24;;;;;;;3.10;1.13;;;21.20;96.70;;;;;;5081059;28;20093;-74
2023/04/08 13:39:53;;;;;;;2.40;1.08;;;21.10;96.70;;;;;;5087645;28;20080;-74
2023/04/08 13:42:22;;;;;;;2.50;1.35;;;21.40;96.70;;;;;;5081125;28;20054;-73
2023/04/08 13:44:50;;;;;;;2.28;1.02;;;21.80;96.70;;;;;;5082712;28;20126;-74
2023/04/08 13:47:20;;;;;;;2.92;1.05;;;21.90;96.70;;;;;;5082504;28;20044;-74
2023/04/08 13:49:48;;;;;;;2.00;1.00;;;21.90;96.70;;;;;;5089768;28;20648;-74
2023/04/08 13:52:16;;;;;;;2.55;1.10;;;22.10;96.70;;;;;;5090458;28;20472;-73
2023/04/08 13:54:45;;;;;;;1.52;0.98;;;22.50;96.70;;;;;;5090553;28;20047;-74
2023/04/08 13:57:13;;;;;;;3.17;1.15;;;22.70;96.70;;;;;;5073041;28;20047;-75
2023/04/08 13:59:41;;;;;;;2.42;1.13;;;22.50;96.70;;;;;;5080496;28;20545;-74
2023/04/08 14:02:11;;;;;;;2.33;1.02;;;22.50;96.70;;;;;;5077701;28;20065;-74
2023/04/08 14:04:42;;;;;;;3.30;1.10;;;22.70;96.70;;;;;;5074803;28;20044;-74
2023/04/08 14:07:10;;;;;;;2.03;1.20;;;23.00;96.70;;;;;;5072496;28;20064;-74
2023/04/08 14:09:38;;;;;;;2.97;1.30;;;22.70;96.70;;;;;;5077349;28;20059;-74
2023/04/08 14:12:07;;;;;;;3.15;1.05;;;22.00;96.70;;;;;;5078191;28;20067;-74
2023/04/08 14:14:35;;;;;;;2.28;1.02;;;21.10;96.70;;;;;;5083463;28;20031;-73
2023/04/08 14:17:03;;;;;;;4.03;1.20;;;20.40;96.70;;;;;;5073634;28;20093;-74
2023/04/08 14:19:32;;;;;;;1.90;1.30;;;19.90;96.70;;;;;;5080300;28;20086;-75
2023/04/08 14:22:02;;;;;;;2.28;1.05;;;19.20;96.70;;;;;;5077403;28;20052;-74
2023/04/08 14:24:30;;;;;;;2.30;1.55;;;18.70;96.70;;;;;;5078003;28;20043;-74
2023/04/08 14:26:58;;;;;;;1.85;1.40;;;18.50;96.70;;;;;;5060213;28;20055;-73
2023/04/08 14:29:26;;;;;;;2.90;1.15;;;18.50;96.70;;;;;;5079611;28;20032;-74
2023/04/08 14:31:54;;;;;;;1.13;1.02;;;18.60;96.70;;;;;;5079831;28;20109;-75
2023/04/08 14:34:23;;;;;;;2.50;1.30;;;18.80;96.70;;;;;;5072026;28;20514;-75
2023/04/08 14:36:51;;;;;;;1.27;1.00;;;18.90;96.70;;;;;;5080231;28;20051;-74
2023/04/08 14:39:21;;;;;;;1.90;1.10;;;19.10;96.70;;;;;;5084888;28;20822;-76
2023/04/08 14:41:50;;;;;;;2.05;0.73;;;19.40;96.70;;;;;;5077729;28;20048;-75
2023/04/08 14:44:18;;;;;;;2.90;1.13;;;19.70;96.70;;;;;;5089615;28;20055;-75
2023/04/08 14:46:46;;;;;;;5.30;3.63;;;20.40;96.70;;;;;;5089714;28;20048;-76
2023/04/08 14:49:15;;;;;;;6.85;4.32;;;21.60;96.70;;;;;;5084440;28;20063;-74
2023/04/08 14:51:43;;;;;;;4.95;2.80;;;22.50;96.70;;;;;;5075699;28;20048;-74
2023/04/08 14:54:13;;;;;;;7.30;4.45;;;23.00;96.70;;;;;;5073316;28;20036;-75
2023/04/08 14:56:42;;;;;;;3.95;3.22;;;23.40;96.70;;;;;;5072931;28;20045;-74
2023/04/08 14:59:10;;;;;;;3.85;2.25;;;23.70;96.70;;;;;;5079025;28;20123;-73
2023/04/08 15:01:40;;;;;;;5.60;2.88;;;23.90;96.70;;;;;;5094035;28;20117;-73
2023/04/08 15:04:08;;;;;;;5.63;3.13;;;24.40;96.70;;;;;;5091284;28;20135;-73
2023/04/08 15:06:39;;;;;;;2.75;1.52;;;25.00;96.70;;;;;;5077384;28;20047;-73
2023/04/08 15:09:07;;;;;;;4.85;3.00;;;25.20;96.70;;;;;;5080564;28;20762;-73
2023/04/08 15:11:35;;;;;;;4.28;2.42;;;25.40;96.70;;;;;;5076720;28;20048;-74
2023/04/08 15:14:05;;;;;;;1.90;1.50;;;24.60;96.70;;;;;;5088297;28;20144;-73
2023/04/08 15:16:33;;;;;;;4.47;2.10;;;24.30;96.70;;;;;;5093826;28;20512;-73
2023/04/08 15:19:03;;;;;;;4.10;1.95;;;24.40;96.70;;;;;;5092870;28;20036;-73
2023/04/08 15:21:31;;;;;;;1.42;1.30;;;24.30;96.70;;;;;;5092905;28;20052;-73
2023/04/08 15:23:59;;;;;;;4.28;1.90;;;24.10;96.70;;;;;;5067150;28;20143;-74
2023/04/08 15:26:27;;;;;;;4.90;2.38;;;24.70;96.70;;;;;;5085321;28;20048;-73
2023/04/08 15:28:57;;;;;;;2.25;1.67;;;25.00;96.70;;;;;;5085577;28;20055;-73
2023/04/08 15:31:27;;;;;;;2.50;1.85;;;24.80;96.70;;;;;;5086453;28;20048;-74
2023/04/08 15:33:55;;;;;;;3.78;1.77;;;23.40;96.70;;;;;;5084745;28;20443;-73
2023/04/08 15:36:23;;;;;;;4.43;1.75;;;24.30;96.70;;;;;;5084048;28;20044;-73
2023/04/08 15:38:51;;;;;;;2.63;1.02;;;25.20;96.40;;;;;;5085438;28;20051;-72
2023/04/08 15:41:20;;;;;;;4.07;1.48;;;25.50;95.10;;;;;;5086010;28;20048;-73
2023/04/08 15:43:49;;;;;;;2.92;0.90;;;25.90;93.90;;;;;;5067524;28;20071;-73
2023/04/08 15:46:17;;;;;;;6.82;1.33;;;25.90;92.50;;;;;;5084134;28;20501;-73
2023/04/08 15:48:47;;;;;;;1.83;1.20;;;25.80;93.80;;;;;;5085780;28;20043;-72
2023/04/08 15:51:16;;;;;;;4.00;1.45;;;25.30;93.70;;;;;;5093588;28;20135;-73
2023/04/08 15:53:44;;;;;;;2.10;0.98;;;25.10;93.90;;;;;;5085725;28;20404;-74
2023/04/08 15:56:13;;;;;;;3.55;1.50;;;25.20;94.80;;;;;;5071844;28;20143;-74
2023/04/08 15:58:41;;;;;;;2.65;1.55;;;25.20;95.30;;;;;;5091810;28;20049;-75
2023/04/08 16:01:10;;;;;;;3.22;1.45;;;25.10;95.40;;;;;;5076443;28;20048;-75
2023/04/08 16:03:38;;;;;;;2.30;1.20;;;25.00;95.10;;;;;;5084904;28;20051;-77
2023/04/08 16:06:08;;;;;;;3.33;1.48;;;24.70;95.70;;;;;;5087260;28;20052;-74
2023/04/08 16:08:38;;;;;;;1.88;1.30;;;24.50;96.70;;;;;;5074797;28;20119;-73